Track Боревич Александр

Time Latitude Longitude Accuracy (66% radius in meters) Altitude (meters) Speed (km/hour) Bearing (degrees) Battery (%) GPS flag
07:57:33 60.370741 29.556674 0 0 0 0 1 delete
07:57:29 60.370653 29.556861 0 0 0 0 1 delete
07:57:26 60.370551 29.557188 0 0 0 0 1 delete
07:57:24 60.370640 29.557355 0 0 0 0 1 delete
07:57:22 60.370774 29.557359 0 0 0 0 1 delete
07:57:19 60.370951 29.557099 0 0 0 0 1 delete
07:57:17 60.371065 29.556956 0 0 0 0 1 delete
07:57:15 60.371185 29.556936 0 0 0 0 1 delete
07:57:13 60.371253 29.557053 0 0 0 0 1 delete
07:57:08 60.371141 29.557662 0 0 0 0 1 delete
07:57:06 60.371063 29.557882 0 0 0 0 1 delete
07:57:03 60.370897 29.558190 0 0 0 0 1 delete
07:57:01 60.370764 29.558354 0 0 0 0 1 delete
07:56:59 60.370613 29.558443 0 0 0 0 1 delete
07:56:56 60.370388 29.558576 0 0 0 0 1 delete
07:56:54 60.370248 29.558607 0 0 0 0 1 delete
07:56:51 60.370096 29.558529 0 0 0 0 1 delete
07:56:50 60.370046 29.558496 0 0 0 0 1 delete
07:56:44 60.369858 29.558586 0 0 0 0 1 delete
07:56:42 60.369752 29.558657 0 0 0 0 1 delete
07:56:40 60.369678 29.558737 0 0 0 0 1 delete
07:56:38 60.369654 29.558874 0 0 0 0 1 delete
07:56:34 60.369704 29.559231 0 0 0 0 1 delete
07:56:32 60.369755 29.559456 0 0 0 0 1 delete
07:56:30 60.369787 29.559695 0 0 0 0 1 delete
07:56:25 60.369605 29.560166 0 0 0 0 1 delete
07:56:20 60.369448 29.560441 0 0 0 0 1 delete
07:56:18 60.369422 29.560664 0 0 0 0 1 delete
07:56:15 60.369371 29.560975 0 0 0 0 1 delete
07:56:13 60.369364 29.561156 0 0 0 0 1 delete
07:56:08 60.369487 29.561560 0 0 0 0 1 delete
07:56:06 60.369572 29.561725 0 0 0 0 1 delete
07:56:03 60.369718 29.561833 0 0 0 0 1 delete
07:55:59 60.369869 29.562024 0 0 0 0 1 delete
07:55:55 60.369974 29.562239 0 0 0 0 1 delete
07:55:52 60.369945 29.562449 0 0 0 0 1 delete
07:55:48 60.369829 29.562609 0 0 0 0 1 delete
07:55:44 60.369717 29.562662 0 0 0 0 1 delete
07:55:41 60.369689 29.562697 0 0 0 0 1 delete
07:55:35 60.369748 29.562702 0 0 0 0 1 delete
07:55:29 60.369967 29.562645 0 0 0 0 1 delete
07:55:23 60.370128 29.562310 0 0 0 0 1 delete
07:55:22 60.370158 29.562261 0 0 0 0 1 delete
07:55:16 60.370154 29.561795 0 0 0 0 1 delete
07:55:10 60.370322 29.561614 0 0 0 0 1 delete
07:55:08 60.370369 29.561669 0 0 0 0 1 delete
07:55:02 60.370454 29.561963 0 0 0 0 1 delete
07:54:58 60.370525 29.562129 0 0 0 0 1 delete
07:54:52 60.370624 29.562137 0 0 0 0 1 delete
07:54:46 60.370849 29.562057 0 0 0 0 1 delete